Time;durP1;ratioP1;P1;durP2;ratioP2;P2;SDS_P1;SDS_P2;PMS_P1;PMS_P2;Temp;Humidity;BMP_temperature;BMP_pressure;BME280_temperature;BME280_humidity;BME280_pressure;Samples;Min_cycle;Max_cycle;Signal;HPM_P1;HPM_P2
2022/12/17 13:07:04;;;;;;;95.03;46.47;;;;;;;-3.48;69.16;101818.78;4153346;28;20044;-70
2022/12/17 13:09:21;;;;;;;101.07;47.25;;;;;;;-3.65;69.68;101817.22;4166252;28;20053;-69
2022/12/17 13:11:29;;;;;;;106.43;49.78;;;;;;;-3.56;69.54;101820.63;4161193;28;20034;-69
2022/12/17 13:13:39;;;;;;;101.13;50.00;;;;;;;-3.52;69.19;101810.88;4162402;28;20055;-69
2022/12/17 13:15:46;;;;;;;109.13;51.55;;;;;;;-3.44;68.91;101801.41;4165344;28;20055;-69
2022/12/17 13:18:00;;;;;;;103.75;49.28;;;;;;;-3.54;68.95;101807.28;4163351;28;20038;-69
2022/12/17 13:20:22;;;;;;;105.68;48.13;;;;;;;-3.46;69.52;101809.66;4164844;28;20088;-69
2022/12/17 13:22:28;;;;;;;107.25;49.38;;;;;;;-3.51;68.75;101809.22;4164511;28;20095;-70
2022/12/17 13:24:31;;;;;;;114.18;51.15;;;;;;;-3.70;69.49;101814.25;4163869;28;20091;-70
2022/12/17 13:26:43;;;;;;;112.93;50.00;;;;;;;-3.79;69.41;101816.84;4161308;28;20069;-70
2022/12/17 13:29:03;;;;;;;110.82;51.47;;;;;;;-3.73;69.91;101813.97;4149353;28;20045;-69
2022/12/17 13:31:15;;;;;;;103.22;49.53;;;;;;;-3.82;70.09;101819.09;4155938;28;20040;-70
2022/12/17 13:33:30;;;;;;;116.95;51.83;;;;;;;-3.72;71.08;101821.75;4158797;28;20525;-70
2022/12/17 13:35:40;;;;;;;107.22;48.25;;;;;;;-3.73;70.44;101813.97;4163493;28;20029;-70
2022/12/17 13:37:52;;;;;;;112.78;49.75;;;;;;;-3.79;70.63;101813.41;4160664;28;20527;-71
2022/12/17 13:40:04;;;;;;;107.18;47.60;;;;;;;-3.72;70.69;101816.66;4156220;28;20103;-70
2022/12/17 13:42:17;;;;;;;106.15;46.72;;;;;;;-3.69;70.71;101816.06;4164639;28;20415;-70
2022/12/17 13:44:25;;;;;;;102.90;47.42;;;;;;;-3.78;70.03;101820.25;4164346;28;20523;-70
2022/12/17 13:46:29;;;;;;;95.38;46.42;;;;;;;-3.97;70.69;101816.00;4162665;28;20554;-69
2022/12/17 13:48:32;;;;;;;;;;;;;;;-3.99;70.67;101812.41;4163495;28;20041;-69
2022/12/17 13:50:35;;;;;;;108.90;45.63;;;;;;;-3.94;71.26;101811.22;4152271;28;19921;-69
2022/12/17 13:52:39;;;;;;;95.38;43.15;;;;;;;-4.05;71.20;101817.81;4147347;28;20047;-69
2022/12/17 13:54:42;;;;;;;97.28;45.25;;;;;;;-3.81;71.84;101814.88;4150306;28;20054;-69
2022/12/17 13:56:45;;;;;;;106.88;46.92;;;;;;;-3.74;71.07;101809.63;4156650;28;20034;-69
2022/12/17 13:58:51;;;;;;;118.38;51.88;;;;;;;-3.81;71.30;101813.25;4165530;28;20068;-70
2022/12/17 14:01:06;;;;;;;102.68;47.65;;;;;;;-3.75;71.40;101818.91;4164369;28;20041;-69
2022/12/17 14:03:11;;;;;;;113.85;49.00;;;;;;;-3.93;72.21;101822.25;4165410;28;20613;-70
2022/12/17 14:05:24;;;;;;;112.55;49.83;;;;;;;-3.76;70.89;101813.69;4147649;28;20057;-70
2022/12/17 14:07:28;;;;;;;117.72;51.78;;;;;;;-3.46;70.62;101824.91;4162431;28;20036;-69
2022/12/17 14:09:35;;;;;;;129.55;51.72;;;;;;;-3.62;70.93;101823.50;4165817;28;20037;-70
2022/12/17 14:13:59;;;;;;;102.85;47.85;;;;;;;-3.69;71.26;101819.47;4163558;28;20044;-69
2022/12/17 14:16:02;;;;;;;100.82;45.42;;;;;;;-3.81;70.96;101814.88;4165320;28;20108;-70
2022/12/17 14:18:10;;;;;;;103.05;46.83;;;;;;;-3.78;71.86;101816.09;4165421;28;20041;-69
2022/12/17 14:20:16;;;;;;;101.38;44.97;;;;;;;-3.79;71.45;101827.00;4165309;28;20041;-69
2022/12/17 14:22:23;;;;;;;105.40;44.08;;;;;;;-3.88;71.92;101821.94;4165315;28;20041;-70
2022/12/17 14:24:28;;;;;;;103.72;46.20;;;;;;;-3.89;73.09;101825.22;4162560;28;20042;-71
2022/12/17 14:26:31;;;;;;;99.28;44.60;;;;;;;-3.76;72.95;101829.81;4147547;28;20075;-71
2022/12/17 14:28:36;;;;;;;104.35;44.67;;;;;;;-3.49;71.37;101832.25;4163796;28;20107;-71
2022/12/17 14:30:40;;;;;;;108.53;46.45;;;;;;;-3.57;71.83;101832.44;4165123;28;20045;-71
2022/12/17 14:33:04;;;;;;;100.55;45.13;;;;;;;-3.41;70.86;101828.78;4159166;28;20091;-71
2022/12/17 14:35:27;;;;;;;98.63;44.63;;;;;;;-3.48;70.59;101826.41;4158116;28;20045;-70
2022/12/17 14:37:31;;;;;;;102.45;44.88;;;;;;;-3.62;71.04;101835.28;4163650;28;20047;-71
2022/12/17 14:39:34;;;;;;;91.78;42.58;;;;;;;-3.81;71.08;101840.28;4147369;28;20132;-71
2022/12/17 14:44:00;;;;;;;105.45;45.78;;;;;;;-3.87;71.64;101846.59;4157599;28;20166;-70
2022/12/17 14:46:21;;;;;;;99.95;44.40;;;;;;;-3.87;72.98;101843.16;4163762;28;20099;-71
2022/12/17 14:48:59;;;;;;;97.82;47.03;;;;;;;-3.83;72.88;101850.31;4164757;28;20044;-71
2022/12/17 14:50:56;;;;;;;106.68;45.78;;;;;;;-3.71;72.19;101858.19;4163018;28;20085;-71
2022/12/17 14:53:00;;;;;;;94.53;44.40;;;;;;;-3.71;72.05;101863.28;4163411;28;20111;-71
2022/12/17 14:55:18;;;;;;;;;;;;;;;-3.76;72.02;101867.94;4163409;28;20577;-71
2022/12/17 14:57:22;;;;;;;86.05;42.70;;;;;;;-3.76;72.12;101861.97;4147088;28;19976;-70
2022/12/17 14:59:32;;;;;;;107.72;48.90;;;;;;;-3.78;72.77;101855.81;4148382;28;20056;-71
2022/12/17 15:01:35;;;;;;;106.30;46.97;;;;;;;-3.77;72.25;101850.00;4148413;28;20073;-71
2022/12/17 15:03:41;;;;;;;94.80;46.28;;;;;;;-3.75;72.61;101856.13;4154382;28;20045;-70
2022/12/17 15:05:47;;;;;;;108.57;45.78;;;;;;;-3.62;72.04;101856.53;4163207;28;20045;-71
2022/12/17 15:07:51;;;;;;;102.50;47.35;;;;;;;-3.50;72.48;101851.69;4148247;28;20091;-71
2022/12/17 15:09:55;;;;;;;102.32;47.47;;;;;;;-3.46;71.31;101850.31;4148408;28;20045;-71
2022/12/17 15:11:58;;;;;;;96.97;47.30;;;;;;;-3.47;71.69;101856.19;4148017;28;20076;-71
2022/12/17 15:14:01;;;;;;;100.00;46.65;;;;;;;-3.56;71.72;101863.84;4159540;28;20095;-71
2022/12/17 15:16:05;;;;;;;104.85;47.38;;;;;;;-3.33;71.00;101858.34;4164364;28;20045;-71
2022/12/17 15:18:08;;;;;;;111.07;46.25;;;;;;;-3.59;70.83;101867.00;4164454;28;20117;-71
2022/12/17 15:20:16;;;;;;;108.22;47.03;;;;;;;-3.62;72.07;101870.88;4163612;28;20033;-70
2022/12/17 15:22:19;;;;;;;109.78;46.78;;;;;;;-3.58;71.63;101875.50;4162956;28;20033;-69
2022/12/17 15:24:23;;;;;;;105.13;48.20;;;;;;;-3.68;71.04;101873.72;4157555;28;20041;-70
2022/12/17 15:26:26;;;;;;;110.85;49.40;;;;;;;-3.74;71.99;101884.25;4160746;28;20491;-69
2022/12/17 15:28:29;;;;;;;104.50;44.60;;;;;;;-3.93;71.53;101885.75;4159594;28;20100;-69
2022/12/17 15:30:32;;;;;;;109.72;48.25;;;;;;;-3.90;72.82;101884.44;4162914;28;20033;-70
2022/12/17 15:32:35;;;;;;;101.20;44.78;;;;;;;-3.94;72.27;101882.34;4164276;28;20045;-70
2022/12/17 15:34:40;;;;;;;106.63;48.30;;;;;;;-3.74;72.07;101883.31;4155585;28;20061;-70
2022/12/17 15:36:43;;;;;;;107.75;47.70;;;;;;;-3.73;71.97;101885.13;4161473;28;20523;-70
2022/12/17 15:38:46;;;;;;;103.15;46.58;;;;;;;-3.84;72.54;101886.66;4155904;28;20037;-70
2022/12/17 15:40:51;;;;;;;112.35;46.10;;;;;;;-3.63;72.84;101887.78;4161845;28;20053;-70
2022/12/17 15:43:11;;;;;;;107.65;47.83;;;;;;;-3.60;71.25;101888.06;4162421;28;20041;-70
2022/12/17 15:45:14;;;;;;;103.13;46.47;;;;;;;-3.71;71.92;101889.59;4160484;28;20060;-70
2022/12/17 15:47:17;;;;;;;104.40;46.15;;;;;;;-3.64;71.21;101885.09;4158814;28;20056;-70
2022/12/17 15:49:21;;;;;;;106.43;49.38;;;;;;;-3.90;71.71;101892.06;4142380;28;20080;-70
2022/12/17 15:51:24;;;;;;;104.80;45.33;;;;;;;-3.89;72.97;101887.84;4160864;28;20120;-70
2022/12/17 15:53:29;;;;;;;117.45;50.28;;;;;;;-3.98;71.98;101890.41;4156330;28;20053;-70
2022/12/17 15:55:32;;;;;;;112.65;49.28;;;;;;;-3.88;72.16;101887.13;4163187;28;20073;-71
2022/12/17 15:57:36;;;;;;;107.00;47.92;;;;;;;-3.75;72.06;101884.06;4163948;28;20049;-71
2022/12/17 15:59:40;;;;;;;104.30;48.45;;;;;;;-3.78;71.28;101886.31;4153061;28;20220;-71
2022/12/17 16:01:42;;;;;;;99.43;47.85;;;;;;;-3.85;71.71;101879.78;4150255;28;20045;-71
2022/12/17 16:03:45;;;;;;;112.30;50.47;;;;;;;-3.95;72.30;101883.06;4154696;28;20066;-70
2022/12/17 16:05:49;;;;;;;103.50;47.90;;;;;;;-4.06;71.48;101883.69;4163651;28;20419;-71
2022/12/17 16:07:52;;;;;;;101.72;48.17;;;;;;;-4.08;72.09;101877.59;4154960;28;20108;-70
2022/12/17 16:09:55;;;;;;;105.55;49.17;;;;;;;-4.12;72.41;101876.38;4155393;28;20037;-71
2022/12/17 16:12:05;;;;;;;107.13;48.50;;;;;;;-4.12;72.32;101872.94;4160148;28;20132;-71
2022/12/17 16:14:09;;;;;;;107.38;47.88;;;;;;;-4.02;72.36;101875.63;4163563;28;20045;-71
2022/12/17 16:16:12;;;;;;;85.82;37.63;;;;;;;-4.10;72.26;101874.00;4146969;28;20100;-71
2022/12/17 16:18:16;;;;;;;106.70;50.13;;;;;;;-4.04;72.33;101887.28;4167002;28;20499;-71
2022/12/17 16:20:19;;;;;;;109.30;49.15;;;;;;;-4.10;72.29;101885.06;4165749;28;20049;-71
2022/12/17 16:22:22;;;;;;;100.65;45.85;;;;;;;-4.21;73.03;101884.00;4166762;28;20045;-71
2022/12/17 16:24:25;;;;;;;109.30;49.20;;;;;;;-4.25;72.11;101887.03;4158110;28;20255;-71
2022/12/17 16:26:27;;;;;;;108.00;48.63;;;;;;;-4.01;72.63;101884.16;4166889;28;20549;-71
2022/12/17 16:28:30;;;;;;;102.50;46.65;;;;;;;-4.01;72.76;101890.13;4165541;28;20041;-71
2022/12/17 16:30:34;;;;;;;103.70;47.28;;;;;;;-3.97;71.52;101897.28;4165651;28;20561;-71
2022/12/17 16:32:38;;;;;;;107.30;45.60;;;;;;;-4.08;71.87;101895.34;4173069;28;20124;-71
2022/12/17 16:34:43;;;;;;;105.10;49.33;;;;;;;-4.18;71.73;101890.16;4163843;28;20073;-70
2022/12/17 16:36:46;;;;;;;110.18;49.10;;;;;;;-4.27;73.04;101893.56;4165757;28;20057;-71
2022/12/17 16:38:51;;;;;;;99.38;46.38;;;;;;;-4.21;72.45;101893.28;4165242;28;20561;-70
2022/12/17 16:40:55;;;;;;;96.50;43.30;;;;;;;-4.33;72.11;101890.44;4166728;28;20045;-71
2022/12/17 16:42:58;;;;;;;87.97;40.80;;;;;;;-4.40;73.11;101895.69;4156109;28;20129;-71
2022/12/17 16:45:01;;;;;;;106.68;44.42;;;;;;;-4.17;72.40;101894.50;4166171;28;20041;-71
2022/12/17 16:47:05;;;;;;;89.75;41.65;;;;;;;-4.24;71.88;101892.97;4166575;28;20132;-71
2022/12/17 16:49:11;;;;;;;88.32;40.45;;;;;;;-4.40;72.60;101904.19;4165365;28;20072;-70
2022/12/17 16:51:16;;;;;;;93.30;39.20;;;;;;;-4.39;73.11;101900.03;4159689;28;20096;-71
2022/12/17 16:53:27;;;;;;;101.97;42.45;;;;;;;-4.33;73.00;101908.22;4151158;28;20045;-71
2022/12/17 16:55:30;;;;;;;86.03;41.10;;;;;;;-4.23;72.19;101902.41;4161075;28;20492;-71
2022/12/17 16:57:33;;;;;;;88.38;40.33;;;;;;;-4.32;71.22;101917.63;4166595;28;20069;-71
2022/12/17 16:59:35;;;;;;;93.30;41.28;;;;;;;-4.36;71.82;101909.59;4166794;28;20095;-71
2022/12/17 17:01:40;;;;;;;90.03;41.17;;;;;;;-4.24;71.51;101903.13;4164834;28;20498;-71
2022/12/17 17:03:44;;;;;;;;;;;;;;;-4.29;72.60;101915.41;4160086;28;20120;-70
2022/12/17 17:05:47;;;;;;;89.57;38.55;;;;;;;-4.26;70.47;101915.69;4164157;28;19971;-71
2022/12/17 17:07:50;;;;;;;178.45;76.13;;;;;;;-4.44;71.97;101916.44;4152839;28;20045;-71
2022/12/17 17:09:53;;;;;;;91.28;40.58;;;;;;;-4.44;72.80;101913.88;4159768;28;20033;-71
2022/12/17 17:11:57;;;;;;;84.32;38.58;;;;;;;-4.46;72.34;101926.44;4162287;28;20462;-71
2022/12/17 17:14:00;;;;;;;90.25;41.03;;;;;;;-4.44;72.39;101926.56;4165161;28;20037;-71
2022/12/17 17:16:04;;;;;;;90.90;40.08;;;;;;;-4.69;71.56;101934.31;4163268;28;20041;-71
2022/12/17 17:18:07;;;;;;;90.25;41.95;;;;;;;-4.84;72.46;101933.69;4163941;28;20060;-71
2022/12/17 17:20:12;;;;;;;84.05;35.90;;;;;;;-4.54;72.91;101934.03;4158144;28;20033;-71
2022/12/17 17:22:15;;;;;;;81.72;36.88;;;;;;;-4.53;71.55;101931.66;4159911;28;20538;-71
2022/12/17 17:24:19;;;;;;;93.13;39.83;;;;;;;-4.66;73.16;101938.81;4157350;28;20136;-71
2022/12/17 17:26:24;;;;;;;84.93;37.13;;;;;;;-4.66;72.56;101934.59;4165316;28;20052;-71
2022/12/17 17:28:27;;;;;;;86.38;40.33;;;;;;;-4.57;71.46;101930.47;4163279;28;20041;-71
2022/12/17 17:30:30;;;;;;;83.47;37.05;;;;;;;-4.54;71.18;101936.56;4163593;28;20034;-71
2022/12/17 17:32:32;;;;;;;78.93;36.90;;;;;;;-4.67;71.68;101940.44;4164915;28;20116;-71
2022/12/17 17:34:35;;;;;;;81.20;38.53;;;;;;;-4.72;72.21;101936.56;4165497;28;20503;-71
2022/12/17 17:36:41;;;;;;;85.30;37.50;;;;;;;-4.53;72.57;101933.31;4159310;28;20049;-71
2022/12/17 17:38:44;;;;;;;81.30;36.83;;;;;;;-4.40;71.18;101932.09;4156367;28;20474;-71
2022/12/17 17:40:47;;;;;;;87.38;39.55;;;;;;;-4.58;71.48;101941.34;4161532;28;20044;-71
2022/12/17 17:42:51;;;;;;;87.18;39.28;;;;;;;-4.78;71.32;101935.94;4160184;28;20037;-71
2022/12/17 17:44:55;;;;;;;80.57;35.63;;;;;;;-4.88;71.43;101945.91;4159691;28;20053;-71
2022/12/17 17:46:58;;;;;;;82.45;36.70;;;;;;;-4.75;72.10;101947.28;4159274;28;20217;-71
2022/12/17 17:49:03;;;;;;;78.55;37.03;;;;;;;-4.59;71.44;101952.22;4148476;28;20053;-71
2022/12/17 17:51:09;;;;;;;87.60;38.25;;;;;;;-4.65;71.13;101950.75;4159238;28;20041;-71
2022/12/17 17:53:13;;;;;;;74.97;35.03;;;;;;;-4.72;71.19;101955.97;4164089;28;20041;-71
2022/12/17 17:55:16;;;;;;;75.43;33.40;;;;;;;-4.82;71.84;101956.66;4163640;28;20108;-71
2022/12/17 17:57:19;;;;;;;75.95;35.97;;;;;;;-4.93;71.49;101961.56;4163389;28;20037;-71
2022/12/17 17:59:22;;;;;;;83.30;39.38;;;;;;;-4.71;71.38;101961.19;4159666;28;20516;-71
2022/12/17 18:01:35;;;;;;;84.03;37.15;;;;;;;-4.57;71.38;101962.53;4151681;28;20132;-71
2022/12/17 18:03:38;;;;;;;74.90;34.78;;;;;;;-4.67;70.87;101965.81;4162335;28;20083;-71
2022/12/17 18:05:42;;;;;;;71.22;33.50;;;;;;;-4.78;71.90;101959.66;4160807;28;20365;-71
2022/12/17 18:07:45;;;;;;;78.57;35.75;;;;;;;-4.77;72.29;101968.19;4161737;28;20049;-71
2022/12/17 18:09:49;;;;;;;78.63;36.30;;;;;;;-4.82;70.99;101969.34;4157289;28;20128;-71
2022/12/17 18:11:52;;;;;;;86.88;37.45;;;;;;;-4.76;71.25;101970.88;4163254;28;20041;-71
2022/12/17 18:13:55;;;;;;;78.22;35.50;;;;;;;-4.74;72.67;101974.44;4157311;28;20041;-71
2022/12/17 18:16:00;;;;;;;87.70;37.60;;;;;;;-4.68;71.37;101978.38;4165181;28;20041;-71
2022/12/17 18:18:03;;;;;;;78.90;36.28;;;;;;;-4.73;71.83;101977.91;4157845;28;20045;-70
2022/12/17 18:20:11;;;;;;;88.13;36.50;;;;;;;-4.75;72.64;101976.84;4165159;28;20033;-71
2022/12/17 18:22:14;;;;;;;98.70;41.50;;;;;;;-4.91;72.79;101984.53;4161134;28;20121;-71
2022/12/17 18:24:20;;;;;;;96.60;42.58;;;;;;;-4.91;73.11;101988.00;4163660;28;20041;-70
2022/12/17 18:26:24;;;;;;;92.75;42.25;;;;;;;-4.95;74.10;101990.97;4162589;28;20050;-71
2022/12/17 18:28:29;;;;;;;81.68;36.90;;;;;;;-4.88;72.75;101983.97;4131590;28;20045;-67
2022/12/17 18:30:32;;;;;;;;;;;;;;;-5.00;74.02;101981.09;4157547;28;20038;-67
2022/12/17 18:32:34;;;;;;;92.70;39.95;;;;;;;-4.96;72.87;101979.00;4163286;28;19921;-67
2022/12/17 18:34:37;;;;;;;83.57;36.97;;;;;;;-4.92;73.47;101976.06;4161458;28;20499;-67
2022/12/17 18:36:42;;;;;;;77.57;36.28;;;;;;;-4.94;72.87;101979.16;4149818;28;20038;-67
2022/12/17 18:38:45;;;;;;;79.38;33.63;;;;;;;-4.90;74.50;101981.28;4155815;28;20040;-67
2022/12/17 18:40:48;;;;;;;82.20;37.83;;;;;;;-4.71;74.04;101976.41;4157996;28;20037;-67
2022/12/17 18:45:12;;;;;;;73.50;35.88;;;;;;;-4.73;73.40;101975.38;4159139;28;20044;-67
2022/12/17 18:47:15;;;;;;;82.00;37.60;;;;;;;-4.83;73.04;101977.69;4161611;28;20045;-67
2022/12/17 18:49:21;;;;;;;74.68;36.25;;;;;;;-4.82;73.00;101977.88;4158454;28;20072;-67
2022/12/17 18:51:24;;;;;;;75.75;37.55;;;;;;;-4.88;72.34;101979.78;4156710;28;20044;-67
2022/12/17 18:53:27;;;;;;;413.67;167.32;;;;;;;-4.61;74.02;101981.66;4163519;28;20479;-68
2022/12/17 18:55:29;;;;;;;144.60;70.88;;;;;;;-4.15;76.90;101966.63;4163551;28;20033;-68
2022/12/17 18:57:32;;;;;;;127.97;67.40;;;;;;;-4.23;75.24;101970.97;4154346;28;20503;-67
2022/12/17 18:59:39;;;;;;;95.78;53.38;;;;;;;-4.34;74.06;101976.63;4157286;28;20045;-70
2022/12/17 19:01:43;;;;;;;93.55;47.47;;;;;;;-4.29;73.54;101973.78;4155572;28;20042;-64
2022/12/17 19:03:46;;;;;;;84.15;40.88;;;;;;;-4.34;72.26;101971.53;4159232;28;20033;-64
2022/12/17 19:05:49;;;;;;;83.13;38.10;;;;;;;-4.52;71.69;101975.72;4142602;28;20054;-63
2022/12/17 19:07:56;;;;;;;83.82;38.88;;;;;;;-4.76;70.96;101990.25;4157621;28;20411;-64
2022/12/17 19:09:59;;;;;;;83.35;36.53;;;;;;;-4.62;72.64;101984.91;4164536;28;20053;-63
2022/12/17 19:12:04;;;;;;;78.75;37.25;;;;;;;-4.63;71.18;101993.31;4163023;28;20051;-63
2022/12/17 19:14:06;;;;;;;;;;;;;;;-4.70;72.62;101983.28;4163376;28;20419;-63
2022/12/17 19:16:13;;;;;;;86.88;36.72;;;;;;;-4.71;72.37;101991.63;4164043;28;20307;-62
2022/12/17 19:18:16;;;;;;;87.93;37.55;;;;;;;-4.53;71.84;101997.63;4161692;28;20033;-62
2022/12/17 19:20:18;;;;;;;87.78;39.22;;;;;;;-4.85;71.60;101996.94;4145935;28;20044;-64
2022/12/17 19:22:21;;;;;;;82.70;37.58;;;;;;;-4.91;71.04;101995.59;4157481;28;20451;-64
2022/12/17 19:24:24;;;;;;;83.40;36.83;;;;;;;-4.90;72.82;101996.50;4156135;28;20454;-65
2022/12/17 19:26:28;;;;;;;87.90;40.45;;;;;;;-4.88;71.17;101989.94;4153448;28;20038;-65
2022/12/17 19:28:31;;;;;;;97.43;38.15;;;;;;;-4.85;72.07;101991.88;4162890;28;20140;-63
2022/12/17 19:30:34;;;;;;;88.20;37.35;;;;;;;-4.91;73.00;101997.22;4151234;28;20061;-66
2022/12/17 19:32:38;;;;;;;82.25;39.95;;;;;;;-4.91;72.17;102005.75;4160703;28;20037;-62
2022/12/17 19:34:41;;;;;;;79.47;38.40;;;;;;;-5.03;72.90;101998.53;4161498;28;20042;-61
2022/12/17 19:36:45;;;;;;;86.45;38.55;;;;;;;-5.14;72.69;101999.97;4147265;28;20463;-61
2022/12/17 19:38:51;;;;;;;73.70;36.10;;;;;;;-5.19;74.22;102002.03;4154106;28;20056;-62
2022/12/17 19:40:55;;;;;;;72.30;33.17;;;;;;;-5.20;73.78;102009.50;4149456;28;20499;-64
2022/12/17 19:42:59;;;;;;;82.25;36.47;;;;;;;-4.97;74.10;102010.19;4151549;28;20038;-63
2022/12/17 19:45:02;;;;;;;76.20;36.17;;;;;;;-5.02;72.24;102008.84;4177804;28;20041;-64
2022/12/17 19:47:05;;;;;;;75.15;35.35;;;;;;;-5.03;72.90;102003.59;4162792;28;20491;-64
2022/12/17 19:49:11;;;;;;;78.63;36.45;;;;;;;-5.14;73.09;102005.03;4150706;28;20049;-65
2022/12/17 19:51:16;;;;;;;71.70;34.47;;;;;;;-5.17;73.91;102010.72;4167012;28;20033;-64
2022/12/17 19:53:22;;;;;;;83.10;38.65;;;;;;;-4.91;73.51;102010.81;4156374;28;20041;-64
2022/12/17 19:55:24;;;;;;;83.05;38.45;;;;;;;-4.91;73.25;102005.75;4147215;28;20096;-65
2022/12/17 19:57:27;;;;;;;79.15;36.85;;;;;;;-4.92;71.97;102003.94;4147111;28;20563;-65
2022/12/17 19:59:30;;;;;;;79.78;36.97;;;;;;;-5.04;71.51;101995.09;4147217;28;20056;-65
2022/12/17 20:01:35;;;;;;;78.45;35.97;;;;;;;-5.13;72.23;101991.63;4130841;28;20134;-63
2022/12/17 20:03:39;;;;;;;80.90;38.67;;;;;;;-5.06;72.60;101988.97;4146964;28;20111;-64
2022/12/17 20:05:44;;;;;;;81.82;37.22;;;;;;;-5.04;72.48;101987.47;4147248;28;20030;-63
2022/12/17 20:07:47;;;;;;;81.47;36.92;;;;;;;-4.95;72.36;101988.44;4151292;28;20104;-65
2022/12/17 20:09:50;;;;;;;88.47;39.95;;;;;;;-4.94;71.83;101995.28;4156497;28;20048;-64
2022/12/17 20:11:53;;;;;;;77.05;37.28;;;;;;;-5.01;72.11;101997.94;4158800;28;20049;-65
2022/12/17 20:14:00;;;;;;;74.72;36.17;;;;;;;-5.13;71.69;102005.19;4163049;28;20046;-64
2022/12/17 20:16:05;;;;;;;77.72;33.78;;;;;;;-5.18;72.54;101992.78;4162551;28;20088;-64
2022/12/17 20:18:08;;;;;;;76.38;34.50;;;;;;;-5.30;72.83;101997.50;4156377;28;20049;-64
2022/12/17 20:20:11;;;;;;;73.07;36.33;;;;;;;-5.27;73.53;101995.31;4152361;28;20041;-65
2022/12/17 20:22:16;;;;;;;74.85;34.67;;;;;;;-5.15;73.60;101998.19;4157417;28;20038;-63
2022/12/17 20:24:19;;;;;;;71.47;33.80;;;;;;;-5.04;73.62;102002.69;4161653;28;20037;-65
2022/12/17 20:26:29;;;;;;;77.75;35.50;;;;;;;-4.94;72.50;102005.41;4179612;28;20541;-65
2022/12/17 20:28:32;;;;;;;78.05;35.50;;;;;;;-5.04;73.18;102011.94;4177599;28;20519;-63
2022/12/17 20:30:35;;;;;;;75.72;36.28;;;;;;;-5.03;72.28;102019.72;4162455;28;20095;-66
2022/12/17 20:32:38;;;;;;;92.55;39.95;;;;;;;-4.96;73.15;102017.06;4154603;28;20038;-65
2022/12/17 20:34:41;;;;;;;84.60;38.88;;;;;;;-4.96;73.77;102017.06;4149325;28;20049;-65
2022/12/17 20:36:44;;;;;;;83.13;40.22;;;;;;;-4.80;73.45;102011.00;4150030;28;20049;-65
2022/12/17 20:38:49;;;;;;;97.57;43.35;;;;;;;-4.83;71.68;102014.13;4154665;28;20045;-64
2022/12/17 20:40:51;;;;;;;83.28;36.60;;;;;;;-4.91;73.20;102020.97;4157690;28;20100;-66
2022/12/17 20:42:54;;;;;;;89.88;38.35;;;;;;;-5.00;72.84;102011.53;4135783;28;20038;-65
2022/12/17 20:44:57;;;;;;;81.07;35.85;;;;;;;-4.91;72.45;102015.91;4149644;28;20088;-64
2022/12/17 20:47:00;;;;;;;82.70;38.67;;;;;;;-4.69;71.96;102018.03;4155719;28;20129;-67
2022/12/17 20:49:04;;;;;;;85.88;40.63;;;;;;;-4.81;73.46;102016.81;4152047;28;20049;-63
2022/12/17 20:51:07;;;;;;;93.50;41.63;;;;;;;-4.86;72.17;101997.69;4150671;28;20040;-68
2022/12/17 20:53:10;;;;;;;89.05;40.65;;;;;;;-4.91;73.05;101990.53;4153777;28;20042;-68
2022/12/17 20:55:14;;;;;;;80.97;35.97;;;;;;;-4.68;73.08;102002.09;4151253;28;20033;-65
2022/12/17 20:57:17;;;;;;;83.30;36.65;;;;;;;-4.79;71.54;102003.56;4161971;28;20042;-64
2022/12/17 20:59:20;;;;;;;74.38;37.50;;;;;;;-4.85;73.83;102010.53;4152156;28;20187;-63
2022/12/17 21:01:25;;;;;;;86.40;38.83;;;;;;;-4.84;72.01;102008.91;4149231;28;20030;-62
2022/12/17 21:03:28;;;;;;;;;;;;;;;-4.76;71.92;102019.09;4162629;28;20045;-60
2022/12/17 21:05:34;;;;;;;86.70;38.53;;;;;;;-4.76;72.85;102020.69;4150144;28;19925;-63
2022/12/17 21:07:40;;;;;;;95.47;38.00;;;;;;;-4.89;72.59;102027.81;4163957;28;20041;-61
2022/12/17 21:09:43;;;;;;;87.90;39.30;;;;;;;-4.98;73.20;102021.09;4157851;28;20029;-62
2022/12/17 21:11:47;;;;;;;84.28;36.60;;;;;;;-5.02;73.50;102030.75;4166009;28;20448;-62
2022/12/17 21:13:51;;;;;;;88.03;40.42;;;;;;;-5.06;73.56;102027.00;4162783;28;20045;-63
2022/12/17 21:15:55;;;;;;;87.70;38.92;;;;;;;-5.06;72.97;102034.63;4153594;28;20049;-62
2022/12/17 21:17:58;;;;;;;93.72;41.53;;;;;;;-4.93;72.83;102042.72;4164904;28;20474;-63
2022/12/17 21:20:00;;;;;;;92.78;37.80;;;;;;;-4.87;73.15;102051.72;4164617;28;20061;-63
2022/12/17 21:22:13;;;;;;;88.03;37.60;;;;;;;-4.93;73.38;102044.38;4158862;28;20057;-63
2022/12/17 21:24:16;;;;;;;85.63;38.50;;;;;;;-4.93;73.58;102027.50;4156581;28;20492;-63
2022/12/17 21:26:21;;;;;;;85.97;37.70;;;;;;;-4.99;73.70;102024.34;4159655;28;20069;-63
2022/12/17 21:28:25;;;;;;;92.00;39.42;;;;;;;-4.85;74.02;102018.13;4156718;28;20030;-63
2022/12/17 21:30:28;;;;;;;94.72;38.08;;;;;;;-4.71;73.30;102017.00;4165187;28;20037;-63
2022/12/17 21:32:31;;;;;;;90.25;38.22;;;;;;;-4.89;72.55;102012.59;4154704;28;20038;-65
2022/12/17 21:34:35;;;;;;;80.38;37.58;;;;;;;-5.05;73.74;102011.06;4163349;28;20108;-64
2022/12/17 21:36:38;;;;;;;93.22;39.45;;;;;;;-4.99;73.44;102020.94;4160261;28;20060;-64
2022/12/17 21:38:42;;;;;;;83.80;37.15;;;;;;;-5.00;73.33;102029.28;4164098;28;20103;-63
2022/12/17 21:40:46;;;;;;;84.90;40.20;;;;;;;-5.04;72.66;102027.16;4153745;28;20141;-65
2022/12/17 21:43:03;;;;;;;101.63;42.05;;;;;;;-5.04;72.45;102033.13;4158785;28;20041;-64
2022/12/17 21:45:08;;;;;;;101.40;39.35;;;;;;;-5.17;72.99;102027.53;4151880;28;20479;-64
2022/12/17 21:47:11;;;;;;;81.60;35.13;;;;;;;-5.24;74.61;102033.63;4153078;28;20030;-74
2022/12/17 21:49:14;;;;;;;91.43;41.38;;;;;;;-5.10;73.55;102032.50;4162575;28;20492;-71
2022/12/17 21:51:17;;;;;;;85.50;38.05;;;;;;;-5.11;73.89;102033.22;4164222;28;20475;-70
2022/12/17 21:53:21;;;;;;;91.05;37.45;;;;;;;-5.04;74.23;102035.66;4158705;28;20072;-71
2022/12/17 21:55:24;;;;;;;89.63;39.47;;;;;;;-5.01;73.92;102033.44;4148596;28;20065;-67
2022/12/17 21:57:27;;;;;;;89.53;39.42;;;;;;;-4.86;74.15;102038.28;4164216;28;20120;-72
2022/12/17 21:59:30;;;;;;;87.65;39.30;;;;;;;-4.73;72.72;102041.34;4151507;28;20379;-75
2022/12/17 22:01:34;;;;;;;89.75;39.05;;;;;;;-4.82;72.79;102037.84;4155307;28;20033;-72
2022/12/17 22:03:37;;;;;;;84.10;34.78;;;;;;;-4.70;71.88;102036.56;4156102;28;20048;-70
2022/12/17 22:05:40;;;;;;;82.90;35.22;;;;;;;-4.79;71.63;102033.06;4162595;28;20095;-65
2022/12/17 22:07:50;;;;;;;83.90;36.75;;;;;;;-4.94;72.52;102028.25;4160933;28;20463;-66
2022/12/17 22:10:27;;;;;;;84.93;38.30;;;;;;;-4.87;72.45;102026.34;4161461;28;20048;-66
2022/12/17 22:15:10;;;;;;;91.22;38.13;;;;;;;-5.13;73.95;102038.16;4164775;28;20048;-66
2022/12/17 22:17:16;;;;;;;92.50;37.72;;;;;;;-5.10;72.78;102033.38;4161844;28;20428;-66
2022/12/17 22:19:22;;;;;;;89.18;37.92;;;;;;;-5.17;73.53;102031.00;4148851;28;20048;-66
2022/12/17 22:21:25;;;;;;;87.55;37.83;;;;;;;-5.09;73.15;102035.19;4148728;28;20148;-66
2022/12/17 22:23:28;;;;;;;83.57;37.30;;;;;;;-5.07;73.46;102031.94;4148451;28;20093;-66
2022/12/17 22:25:31;;;;;;;92.60;39.25;;;;;;;-5.09;73.97;102040.25;4148886;28;20500;-66
2022/12/17 22:27:34;;;;;;;80.10;38.05;;;;;;;-5.04;73.66;102045.78;4148760;28;20128;-66
2022/12/17 22:34:20;;;;;;;79.82;35.35;;;;;;;-5.08;73.28;102041.19;4150998;28;20396;-67
2022/12/17 22:36:43;;;;;;;78.65;34.78;;;;;;;-5.12;75.01;102036.53;4165006;28;20045;-66
2022/12/17 22:39:08;;;;;;;73.78;35.45;;;;;;;-5.07;73.41;102025.22;4163929;28;20045;-66
2022/12/17 22:44:12;;;;;;;77.13;35.13;;;;;;;-5.07;73.58;102035.34;4164363;28;20088;-66
2022/12/17 22:46:35;;;;;;;73.82;33.17;;;;;;;-5.07;73.14;102042.97;4147431;28;20116;-66
2022/12/17 22:48:38;;;;;;;60.70;31.40;;;;;;;-5.08;74.04;102041.19;4155929;28;20458;-66
2022/12/17 22:50:42;;;;;;;70.28;32.28;;;;;;;-4.96;73.67;102052.56;4161662;28;20042;-66
2022/12/17 22:53:04;;;;;;;70.65;32.00;;;;;;;-5.05;72.97;102064.31;4157389;28;20041;-66